Time;durP1;ratioP1;P1;durP2;ratioP2;P2;SDS_P1;SDS_P2;PMS_P1;PMS_P2;Temp;Humidity;BMP_temperature;BMP_pressure;BME280_temperature;BME280_humidity;BME280_pressure;Samples;Min_cycle;Max_cycle;Signal;HPM_P1;HPM_P2
2021/12/28 00:01:37;;;;;;;63.60;24.02;;;7.90;97.30;;;;;;5095383;28;20056;-80
2021/12/28 00:04:07;;;;;;;52.85;22.77;;;7.90;97.30;;;;;;5092962;28;20100;-81
2021/12/28 00:06:37;;;;;;;64.50;22.27;;;7.90;97.20;;;;;;5106069;28;20023;-81
2021/12/28 00:09:08;;;;;;;63.60;22.35;;;7.90;97.20;;;;;;5100520;28;20041;-80
2021/12/28 00:11:38;;;;;;;59.95;21.25;;;7.80;97.10;;;;;;5100917;28;20046;-81
2021/12/28 00:14:06;;;;;;;54.22;21.45;;;7.80;97.00;;;;;;5098140;27;20071;-81
2021/12/28 00:19:22;;;;;;;66.50;20.33;;;7.70;96.90;;;;;;5095744;28;20057;-80
2021/12/28 00:21:49;;;;;;;49.08;20.52;;;7.70;96.90;;;;;;5105742;28;20125;-80
2021/12/28 00:24:16;;;;;;;42.20;20.33;;;7.70;97.00;;;;;;5101882;28;20049;-80
2021/12/28 00:26:45;;;;;;;48.40;20.00;;;7.80;97.20;;;;;;5102388;27;20089;-81
2021/12/28 00:29:16;;;;;;;46.80;18.40;;;7.80;97.20;;;;;;5100345;28;20028;-80
2021/12/28 00:31:43;;;;;;;48.45;18.02;;;7.70;97.10;;;;;;5078637;28;20029;-81
2021/12/28 00:34:09;;;;;;;49.90;18.13;;;7.80;97.10;;;;;;5096043;28;20045;-80
2021/12/28 00:36:36;;;;;;;50.97;17.98;;;7.70;97.00;;;;;;5095151;28;20067;-81
2021/12/28 00:39:07;;;;;;;50.90;16.67;;;7.70;97.00;;;;;;5107292;28;20033;-80
2021/12/28 00:41:33;;;;;;;47.00;17.25;;;7.70;96.90;;;;;;5095329;28;20035;-81
2021/12/28 00:44:06;;;;;;;47.80;16.65;;;7.70;96.90;;;;;;5080070;28;20032;-80
2021/12/28 00:46:33;;;;;;;51.95;15.88;;;7.60;96.80;;;;;;5099586;28;20033;-80
2021/12/28 00:49:00;;;;;;;44.78;16.00;;;7.60;96.80;;;;;;5099083;27;20028;-81
2021/12/28 00:51:27;;;;;;;48.30;18.23;;;7.50;96.80;;;;;;5092436;28;20088;-80
2021/12/28 00:53:54;;;;;;;50.40;16.63;;;7.50;96.80;;;;;;5095184;28;20033;-81
2021/12/28 00:56:20;;;;;;;42.80;15.90;;;7.50;96.80;;;;;;5103122;28;20100;-80
2021/12/28 00:58:50;;;;;;;41.78;15.65;;;7.40;96.80;;;;;;5092385;28;20108;-80
2021/12/28 01:01:17;;;;;;;37.30;13.60;;;7.40;96.90;;;;;;5095543;28;20128;-80
2021/12/28 01:03:44;;;;;;;42.40;14.55;;;7.40;96.90;;;;;;5100156;28;20044;-81
2021/12/28 01:06:11;;;;;;;53.63;13.85;;;7.30;96.80;;;;;;5082510;28;20049;-80
2021/12/28 01:08:38;;;;;;;38.90;12.95;;;7.30;96.90;;;;;;5096163;28;20186;-80
2021/12/28 01:11:06;;;;;;;29.98;12.45;;;7.30;96.80;;;;;;5099758;28;20085;-80
2021/12/28 01:13:33;;;;;;;45.05;13.20;;;7.20;96.80;;;;;;5105937;28;20064;-80
2021/12/28 01:16:02;;;;;;;43.13;13.70;;;7.20;96.90;;;;;;5097651;28;20347;-80
2021/12/28 01:18:29;;;;;;;48.38;12.55;;;7.20;96.90;;;;;;5109333;28;20043;-80
2021/12/28 01:20:58;;;;;;;40.38;12.52;;;7.10;96.90;;;;;;5099484;28;20060;-80
2021/12/28 01:23:26;;;;;;;36.30;12.25;;;7.10;97.00;;;;;;5113590;28;20105;-80
2021/12/28 01:25:54;;;;;;;37.00;11.60;;;7.10;97.00;;;;;;5103599;27;20081;-80
2021/12/28 01:28:23;;;;;;;42.90;12.07;;;7.10;97.00;;;;;;5104384;28;20102;-80
2021/12/28 01:30:50;;;;;;;37.22;11.52;;;7.10;97.00;;;;;;5105295;28;20041;-80
2021/12/28 01:33:17;;;;;;;49.58;12.43;;;7.10;97.20;;;;;;5108135;28;20035;-81
2021/12/28 01:35:44;;;;;;;42.47;11.98;;;7.10;97.20;;;;;;5085003;28;20045;-80
2021/12/28 01:38:14;;;;;;;43.20;12.07;;;7.10;97.30;;;;;;5102997;28;20041;-80
2021/12/28 01:40:42;;;;;;;49.50;12.07;;;7.20;97.30;;;;;;5110581;28;20064;-80
2021/12/28 01:43:20;;;;;;;41.95;10.80;;;7.20;97.30;;;;;;5106698;28;20097;-80
2021/12/28 01:45:50;;;;;;;42.78;10.82;;;7.20;97.30;;;;;;5102714;28;20041;-80
2021/12/28 01:48:21;;;;;;;34.70;10.32;;;7.20;97.30;;;;;;5105685;28;20021;-80
2021/12/28 01:50:51;;;;;;;39.58;10.40;;;7.20;97.30;;;;;;5102549;28;20061;-81
2021/12/28 01:53:20;;;;;;;52.17;11.23;;;7.30;97.30;;;;;;5100032;28;20060;-80
2021/12/28 01:55:49;;;;;;;44.90;10.13;;;7.30;97.30;;;;;;5100464;28;20049;-80
2021/12/28 01:58:16;;;;;;;42.10;9.55;;;7.30;97.20;;;;;;5101831;28;20037;-81
2021/12/28 02:00:45;;;;;;;44.42;11.68;;;7.30;97.20;;;;;;5100272;28;20060;-80
2021/12/28 02:03:16;;;;;;;35.70;8.85;;;7.30;97.10;;;;;;5101671;28;20037;-80
2021/12/28 02:05:43;;;;;;;35.20;8.80;;;7.30;97.20;;;;;;5100791;28;20033;-80
2021/12/28 02:08:14;;;;;;;43.53;9.35;;;7.20;97.00;;;;;;5101806;28;20033;-80
2021/12/28 02:10:44;;;;;;;42.35;8.27;;;7.20;96.90;;;;;;5098720;28;20128;-79
2021/12/28 02:13:11;;;;;;;37.10;8.20;;;7.30;96.90;;;;;;5095203;28;20052;-80
2021/12/28 02:15:38;;;;;;;33.78;8.48;;;7.30;96.80;;;;;;5081261;28;20085;-80
2021/12/28 02:18:08;;;;;;;42.08;7.82;;;7.20;96.70;;;;;;5100918;28;20029;-80
2021/12/28 02:20:35;;;;;;;48.00;9.00;;;7.20;96.60;;;;;;5105677;27;20048;-80
2021/12/28 02:23:03;;;;;;;34.33;8.95;;;7.20;96.60;;;;;;5102823;28;20041;-80
2021/12/28 02:25:31;;;;;;;36.08;8.27;;;7.10;96.50;;;;;;5099585;28;20024;-80
2021/12/28 02:27:59;;;;;;;39.35;9.02;;;7.10;96.60;;;;;;5093476;28;20068;-80
2021/12/28 02:30:25;;;;;;;45.78;8.38;;;7.20;96.80;;;;;;5105535;28;20065;-80
2021/12/28 02:32:52;;;;;;;33.55;7.63;;;7.20;96.90;;;;;;5103452;28;20101;-80
2021/12/28 02:35:22;;;;;;;27.65;7.70;;;7.20;96.80;;;;;;5096047;28;20055;-79
2021/12/28 02:37:50;;;;;;;65.53;9.30;;;7.20;96.70;;;;;;5094333;28;20092;-79
2021/12/28 02:40:20;;;;;;;33.00;7.25;;;7.30;96.60;;;;;;5108194;28;20487;-80
2021/12/28 02:42:48;;;;;;;36.55;8.82;;;7.30;96.60;;;;;;5105663;28;20096;-80
2021/12/28 02:45:30;;;;;;;36.00;8.50;;;7.30;96.60;;;;;;5106379;28;20020;-80
2021/12/28 02:47:57;;;;;;;38.00;8.10;;;7.30;96.40;;;;;;5103944;28;20036;-80
2021/12/28 02:50:44;;;;;;;33.17;7.65;;;7.30;96.30;;;;;;5103899;28;20096;-80
2021/12/28 02:53:12;;;;;;;36.38;6.43;;;7.30;96.30;;;;;;5101424;28;20051;-80
2021/12/28 02:55:39;;;;;;;43.53;7.93;;;7.40;96.30;;;;;;5096582;28;20045;-80
2021/12/28 02:58:11;;;;;;;48.72;7.70;;;7.40;96.30;;;;;;5097656;28;20060;-80
2021/12/28 03:00:43;;;;;;;37.50;7.80;;;7.40;96.10;;;;;;5084352;28;20105;-79
2021/12/28 03:03:12;;;;;;;53.83;7.88;;;7.40;96.00;;;;;;5082727;28;20097;-79
2021/12/28 03:05:43;;;;;;;37.33;6.78;;;7.40;95.90;;;;;;5079320;28;20041;-79
2021/12/28 03:08:14;;;;;;;32.58;6.15;;;7.40;95.90;;;;;;5078525;28;20101;-79
2021/12/28 03:10:42;;;;;;;37.45;6.40;;;7.40;95.90;;;;;;5083207;28;20057;-80
2021/12/28 03:13:22;;;;;;;34.95;7.60;;;7.40;95.80;;;;;;5080334;28;20029;-79
2021/12/28 03:15:50;;;;;;;41.17;7.15;;;7.40;95.90;;;;;;5076166;28;20021;-79
2021/12/28 03:18:17;;;;;;;33.60;6.57;;;7.40;95.90;;;;;;5114030;27;20048;-80
2021/12/28 03:20:44;;;;;;;34.08;7.35;;;7.40;95.80;;;;;;5075777;28;20029;-79
2021/12/28 03:23:14;;;;;;;39.25;7.25;;;7.50;95.80;;;;;;5083833;28;20056;-79
2021/12/28 03:25:41;;;;;;;41.65;7.68;;;7.50;95.70;;;;;;5076105;28;20054;-79
2021/12/28 03:28:14;;;;;;;35.58;6.60;;;7.50;95.60;;;;;;5086263;28;20089;-79
2021/12/28 03:30:41;;;;;;;48.60;8.13;;;7.50;95.50;;;;;;5078302;28;20156;-79
2021/12/28 03:33:07;;;;;;;30.05;6.35;;;7.50;95.40;;;;;;5088878;28;20112;-79
2021/12/28 03:35:37;;;;;;;25.52;6.40;;;7.50;95.40;;;;;;5087524;28;20033;-79
2021/12/28 03:38:03;;;;;;;38.70;7.05;;;7.50;95.40;;;;;;5079403;28;20050;-80
2021/12/28 03:40:31;;;;;;;41.83;6.85;;;7.50;95.40;;;;;;5083925;28;20699;-79
2021/12/28 03:42:57;;;;;;;40.20;6.93;;;7.50;95.30;;;;;;5086255;28;20190;-80
2021/12/28 03:45:24;;;;;;;33.55;6.40;;;7.50;95.20;;;;;;5092900;28;20037;-79
2021/12/28 03:47:51;;;;;;;28.20;6.55;;;7.60;95.10;;;;;;5076983;28;20041;-79
2021/12/28 03:50:19;;;;;;;41.38;7.35;;;7.60;95.00;;;;;;5078620;28;20029;-80
2021/12/28 03:52:46;;;;;;;39.67;6.40;;;7.50;94.90;;;;;;5078295;28;20124;-80
2021/12/28 03:55:13;;;;;;;33.83;6.50;;;7.50;95.10;;;;;;5082718;28;20060;-79
2021/12/28 03:57:40;;;;;;;31.92;5.70;;;7.50;95.00;;;;;;5079578;28;20049;-79
2021/12/28 04:00:12;;;;;;;37.00;6.32;;;7.50;95.00;;;;;;5093883;28;20041;-79
2021/12/28 04:02:40;;;;;;;41.22;6.68;;;7.50;95.10;;;;;;5094754;28;20579;-79
2021/12/28 04:05:08;;;;;;;26.08;5.72;;;7.50;95.10;;;;;;5099072;27;20060;-79
2021/12/28 04:07:35;;;;;;;32.35;6.60;;;7.50;94.90;;;;;;5103635;28;20052;-79
2021/12/28 04:10:08;;;;;;;28.75;6.22;;;7.50;95.00;;;;;;5097890;28;20040;-79
2021/12/28 04:12:36;;;;;;;40.25;6.15;;;7.50;95.00;;;;;;5110695;28;20500;-79
2021/12/28 04:15:04;;;;;;;27.67;5.30;;;7.50;95.10;;;;;;5098623;28;20041;-79
2021/12/28 04:17:36;;;;;;;35.10;5.90;;;7.50;95.10;;;;;;5108229;27;20530;-79
2021/12/28 04:20:09;;;;;;;32.58;5.45;;;7.50;94.90;;;;;;5095938;28;20056;-79
2021/12/28 04:22:41;;;;;;;31.70;5.25;;;7.50;94.90;;;;;;5100780;28;20028;-78
2021/12/28 04:25:09;;;;;;;25.75;4.55;;;7.50;94.80;;;;;;5100617;28;20112;-79
2021/12/28 04:27:36;;;;;;;41.22;6.35;;;7.50;94.70;;;;;;5097336;28;20092;-79
2021/12/28 04:30:06;;;;;;;33.13;5.35;;;7.50;94.70;;;;;;5101268;28;20108;-79
2021/12/28 04:32:33;;;;;;;31.85;5.40;;;7.50;94.70;;;;;;5099071;28;20500;-79
2021/12/28 04:35:07;;;;;;;27.90;5.70;;;7.50;94.70;;;;;;5101248;28;20093;-79
2021/12/28 04:37:38;;;;;;;29.25;5.82;;;7.50;94.80;;;;;;5116571;28;21223;-79
2021/12/28 04:40:08;;;;;;;37.30;6.05;;;7.40;94.70;;;;;;5106897;28;20041;-79
2021/12/28 04:42:35;;;;;;;32.53;5.82;;;7.40;94.70;;;;;;5099599;28;20061;-79
2021/12/28 04:45:02;;;;;;;31.20;6.03;;;7.40;94.60;;;;;;5088812;28;20036;-79
2021/12/28 04:47:28;;;;;;;35.72;5.75;;;7.40;94.80;;;;;;5097745;28;20039;-79
2021/12/28 04:49:55;;;;;;;29.50;5.78;;;7.40;94.70;;;;;;5103378;28;20049;-79
2021/12/28 04:52:22;;;;;;;37.95;5.45;;;7.50;94.70;;;;;;5103860;28;20100;-79
2021/12/28 04:54:49;;;;;;;31.67;4.97;;;7.50;94.70;;;;;;5106557;27;20045;-78
2021/12/28 04:57:15;;;;;;;25.80;5.32;;;7.50;94.70;;;;;;5109075;28;20175;-79
2021/12/28 04:59:42;;;;;;;25.95;5.53;;;7.50;94.70;;;;;;5098353;28;20045;-78
2021/12/28 05:02:09;;;;;;;32.30;5.63;;;7.50;94.70;;;;;;5102716;28;20104;-78
2021/12/28 05:04:36;;;;;;;29.50;4.93;;;7.50;94.70;;;;;;5094631;28;20025;-78
2021/12/28 05:07:03;;;;;;;27.05;5.38;;;7.50;94.40;;;;;;5103742;28;20028;-79
2021/12/28 05:09:32;;;;;;;28.13;5.38;;;7.50;94.40;;;;;;5107498;28;20041;-79
2021/12/28 05:11:58;;;;;;;38.45;5.10;;;7.50;94.60;;;;;;5104246;28;20049;-78
2021/12/28 05:14:25;;;;;;;27.90;4.45;;;7.50;94.60;;;;;;5100459;28;20043;-78
2021/12/28 05:16:52;;;;;;;31.90;5.25;;;7.50;94.60;;;;;;5086908;28;20024;-78
2021/12/28 05:19:19;;;;;;;31.30;5.00;;;7.60;94.40;;;;;;5106309;27;20028;-78
2021/12/28 05:21:48;;;;;;;32.25;5.40;;;7.60;94.30;;;;;;5108011;28;20164;-78
2021/12/28 05:24:15;;;;;;;25.30;5.05;;;7.60;94.40;;;;;;5106518;28;20056;-78
2021/12/28 05:26:42;;;;;;;28.40;4.95;;;7.50;94.30;;;;;;5106320;28;20047;-79
2021/12/28 05:29:08;;;;;;;27.52;5.10;;;7.50;94.30;;;;;;5099032;28;20029;-79
2021/12/28 05:31:35;;;;;;;32.72;4.93;;;7.50;94.40;;;;;;5104381;28;20109;-79
2021/12/28 05:34:02;;;;;;;27.40;5.85;;;7.50;94.50;;;;;;5102123;28;20029;-78
2021/12/28 05:36:31;;;;;;;34.85;5.47;;;7.60;94.40;;;;;;5102795;28;20093;-78
2021/12/28 05:38:57;;;;;;;28.38;4.22;;;7.50;94.50;;;;;;5109687;28;20052;-79
2021/12/28 05:41:26;;;;;;;26.95;4.57;;;7.60;94.50;;;;;;5098546;28;20092;-78
2021/12/28 05:43:53;;;;;;;31.73;5.25;;;7.50;94.40;;;;;;5097350;28;20026;-78
2021/12/28 05:46:20;;;;;;;28.20;4.88;;;7.60;94.10;;;;;;5099895;28;20028;-79
2021/12/28 05:48:47;;;;;;;25.15;4.90;;;7.50;94.20;;;;;;5102207;28;20037;-78
2021/12/28 05:51:15;;;;;;;32.28;4.43;;;7.50;94.20;;;;;;5108447;28;20046;-79
2021/12/28 05:53:41;;;;;;;28.10;5.30;;;7.50;94.30;;;;;;5114883;28;20036;-79
2021/12/28 05:56:08;;;;;;;30.23;4.57;;;7.50;94.30;;;;;;5114470;27;20102;-79
2021/12/28 05:58:35;;;;;;;22.75;4.55;;;7.50;94.30;;;;;;5093856;28;20059;-79
2021/12/28 06:01:07;;;;;;;32.20;5.00;;;7.50;94.40;;;;;;5108107;28;20059;-78
2021/12/28 06:03:37;;;;;;;23.25;4.60;;;7.50;94.40;;;;;;5099848;28;20026;-79
2021/12/28 06:06:06;;;;;;;26.35;4.40;;;7.50;94.60;;;;;;5104583;28;20033;-78
2021/12/28 06:08:33;;;;;;;21.92;4.10;;;7.60;94.70;;;;;;5099396;28;20049;-78
2021/12/28 06:11:02;;;;;;;28.08;5.18;;;7.60;94.60;;;;;;5102711;28;20104;-79
2021/12/28 06:13:31;;;;;;;23.60;4.85;;;7.60;94.40;;;;;;5108244;28;20027;-78
2021/12/28 06:16:01;;;;;;;19.08;4.38;;;7.70;94.40;;;;;;5109241;28;20048;-78
2021/12/28 06:18:28;;;;;;;17.10;4.10;;;7.70;94.40;;;;;;5097431;28;20045;-78
2021/12/28 06:20:56;;;;;;;27.92;4.68;;;7.70;94.30;;;;;;5083940;28;20029;-78
2021/12/28 06:23:23;;;;;;;27.98;5.30;;;7.70;94.50;;;;;;5102788;28;20113;-78
2021/12/28 06:25:49;;;;;;;20.77;4.47;;;7.80;94.60;;;;;;5101523;28;20093;-79
2021/12/28 06:28:16;;;;;;;29.40;4.03;;;7.80;94.50;;;;;;5096964;28;20025;-79
2021/12/28 06:30:43;;;;;;;27.45;4.07;;;7.80;94.50;;;;;;5101961;28;20100;-79
2021/12/28 06:33:10;;;;;;;24.88;4.15;;;7.80;94.60;;;;;;5107600;28;20041;-78
2021/12/28 06:35:37;;;;;;;31.52;3.97;;;7.80;94.70;;;;;;5105188;27;20085;-79
2021/12/28 06:38:06;;;;;;;23.20;4.20;;;7.80;94.70;;;;;;5114343;27;20048;-79
2021/12/28 06:40:33;;;;;;;24.25;3.60;;;7.80;94.70;;;;;;5107152;28;20049;-78
2021/12/28 06:43:00;;;;;;;20.55;4.22;;;7.90;94.90;;;;;;5087642;28;20088;-78
2021/12/28 06:45:27;;;;;;;20.50;3.97;;;7.90;94.90;;;;;;5101646;28;20499;-78
2021/12/28 06:47:54;;;;;;;22.33;4.30;;;7.90;95.00;;;;;;5096670;28;20167;-78
2021/12/28 06:50:21;;;;;;;19.73;3.95;;;8.00;94.70;;;;;;5095814;28;20606;-78
2021/12/28 06:52:57;;;;;;;22.38;3.45;;;8.10;94.70;;;;;;5094890;28;20041;-79
2021/12/28 06:55:28;;;;;;;25.65;3.83;;;8.00;94.40;;;;;;5079432;28;20025;-78
2021/12/28 06:57:59;;;;;;;26.55;4.03;;;8.10;94.50;;;;;;5095554;28;20017;-78
2021/12/28 07:00:30;;;;;;;17.42;3.30;;;8.10;94.50;;;;;;5095739;28;20044;-78
2021/12/28 07:03:04;;;;;;;20.67;3.47;;;8.10;94.60;;;;;;5095542;28;20245;-78
2021/12/28 07:05:39;;;;;;;30.08;4.75;;;8.20;94.30;;;;;;5098580;27;20033;-78
2021/12/28 07:08:11;;;;;;;23.23;3.63;;;8.20;94.40;;;;;;5099330;28;20053;-79
2021/12/28 07:10:40;;;;;;;22.05;3.92;;;8.10;94.40;;;;;;5121489;27;20101;-78
2021/12/28 07:13:10;;;;;;;15.52;2.92;;;8.10;94.40;;;;;;5097484;28;20056;-78
2021/12/28 07:15:44;;;;;;;25.70;4.25;;;8.10;94.60;;;;;;5095757;28;20046;-78
2021/12/28 07:18:14;;;;;;;20.00;3.53;;;8.10;94.50;;;;;;5084073;28;20017;-78
2021/12/28 07:20:41;;;;;;;15.05;3.13;;;8.10;94.70;;;;;;5091287;28;20049;-78
2021/12/28 07:23:14;;;;;;;23.50;4.00;;;8.20;94.70;;;;;;5083451;28;20085;-79
2021/12/28 07:25:41;;;;;;;23.52;3.60;;;8.20;94.40;;;;;;5079343;28;20099;-78
2021/12/28 07:28:10;;;;;;;22.33;3.40;;;8.20;94.40;;;;;;5095830;28;20028;-78
2021/12/28 07:30:47;;;;;;;16.05;3.17;;;8.20;94.40;;;;;;5095452;28;20049;-78
2021/12/28 07:33:21;;;;;;;19.83;3.55;;;8.30;94.60;;;;;;5098323;28;20052;-78
2021/12/28 07:36:09;;;;;;;17.45;3.28;;;8.30;94.40;;;;;;5095216;28;20048;-78
2021/12/28 07:38:37;;;;;;;17.77;3.00;;;8.30;94.30;;;;;;5095650;28;20045;-79
2021/12/28 07:41:06;;;;;;;21.55;3.40;;;8.30;94.40;;;;;;5096470;28;20069;-78
2021/12/28 07:43:39;;;;;;;12.10;2.75;;;8.20;94.50;;;;;;5093821;28;20041;-78
2021/12/28 07:46:06;;;;;;;21.58;4.20;;;8.20;94.80;;;;;;5094212;28;20056;-79
2021/12/28 07:48:33;;;;;;;21.35;3.95;;;8.20;95.00;;;;;;5103111;28;20049;-78
2021/12/28 07:51:00;;;;;;;21.77;3.70;;;8.20;95.00;;;;;;5095562;28;20049;-78
2021/12/28 07:53:27;;;;;;;15.57;3.50;;;8.30;95.10;;;;;;5085992;28;20085;-78
2021/12/28 07:56:00;;;;;;;18.30;3.90;;;8.30;95.10;;;;;;5086481;27;20033;-79
2021/12/28 07:58:27;;;;;;;19.67;3.63;;;8.30;95.30;;;;;;5078024;28;20060;-79
2021/12/28 08:00:53;;;;;;;25.13;5.15;;;8.30;95.40;;;;;;5090991;28;20052;-79
2021/12/28 08:03:22;;;;;;;18.90;4.30;;;8.30;95.40;;;;;;5096789;28;20063;-79
2021/12/28 08:05:51;;;;;;;26.00;4.30;;;8.20;95.70;;;;;;5086951;28;20039;-79
2021/12/28 08:08:18;;;;;;;25.88;5.18;;;8.20;95.90;;;;;;5098382;28;20036;-79
2021/12/28 08:10:45;;;;;;;19.73;4.72;;;8.20;96.10;;;;;;5100814;28;20041;-79
2021/12/28 08:13:13;;;;;;;19.60;4.75;;;8.20;96.20;;;;;;5095186;28;20092;-79
2021/12/28 08:15:39;;;;;;;26.45;4.68;;;8.20;96.10;;;;;;5087260;28;20591;-80
2021/12/28 08:18:09;;;;;;;31.10;4.90;;;8.20;96.10;;;;;;5094199;28;20032;-79
2021/12/28 08:20:38;;;;;;;21.80;4.70;;;8.20;96.10;;;;;;5080789;28;20037;-79
2021/12/28 08:23:08;;;;;;;22.83;4.88;;;8.20;96.20;;;;;;5086732;28;20054;-78
2021/12/28 08:25:35;;;;;;;22.50;5.30;;;8.20;96.30;;;;;;5095049;28;20037;-79
2021/12/28 08:28:08;;;;;;;22.20;5.20;;;8.20;96.30;;;;;;5090331;28;20096;-79
2021/12/28 08:30:36;;;;;;;18.65;4.95;;;8.30;96.50;;;;;;5095230;28;20036;-79
2021/12/28 08:33:07;;;;;;;21.77;5.07;;;8.20;96.50;;;;;;5105707;28;20060;-79
2021/12/28 08:35:42;;;;;;;16.88;4.82;;;8.20;96.60;;;;;;5099360;28;20077;-79
2021/12/28 08:38:10;;;;;;;21.98;5.68;;;8.30;96.60;;;;;;5096035;28;20032;-79
2021/12/28 08:40:40;;;;;;;21.63;5.45;;;8.30;96.70;;;;;;5095128;28;20033;-79
2021/12/28 08:43:07;;;;;;;16.33;5.28;;;8.30;96.80;;;;;;5078839;28;20056;-79
2021/12/28 08:45:36;;;;;;;25.73;5.68;;;8.30;96.80;;;;;;5102754;27;20049;-80
2021/12/28 08:48:03;;;;;;;21.33;5.55;;;8.30;96.70;;;;;;5094775;28;20095;-79
2021/12/28 08:50:32;;;;;;;23.58;5.40;;;8.30;96.80;;;;;;5095385;28;20088;-79
2021/12/28 08:53:01;;;;;;;19.73;6.05;;;8.30;96.80;;;;;;5098290;28;20017;-79
2021/12/28 08:55:28;;;;;;;17.02;5.13;;;8.30;96.90;;;;;;5095347;28;20041;-79
2021/12/28 08:57:54;;;;;;;15.75;5.22;;;8.30;96.90;;;;;;5105242;27;20092;-79
2021/12/28 09:00:28;;;;;;;18.15;5.65;;;8.40;96.90;;;;;;5087373;28;20045;-80
2021/12/28 09:02:56;;;;;;;18.60;5.93;;;8.40;97.00;;;;;;5111559;27;20057;-80
2021/12/28 09:05:24;;;;;;;13.23;5.97;;;8.40;97.00;;;;;;5083005;28;20036;-79
2021/12/28 09:07:52;;;;;;;11.93;5.75;;;8.40;97.00;;;;;;5101736;28;20093;-80
2021/12/28 09:10:19;;;;;;;21.55;6.65;;;8.40;97.00;;;;;;5097937;28;20105;-80
2021/12/28 09:12:46;;;;;;;22.30;6.07;;;8.40;97.10;;;;;;5094810;28;20041;-80
2021/12/28 09:15:13;;;;;;;19.55;5.78;;;8.40;97.00;;;;;;5094778;28;20439;-80
2021/12/28 09:17:42;;;;;;;17.75;6.68;;;8.40;97.00;;;;;;5095282;28;20121;-79
2021/12/28 09:20:15;;;;;;;22.25;7.07;;;8.40;97.00;;;;;;5094842;28;20125;-80
2021/12/28 09:23:02;;;;;;;17.67;6.60;;;8.50;97.00;;;;;;5094443;28;20022;-80
2021/12/28 09:25:31;;;;;;;19.50;7.68;;;8.50;97.10;;;;;;5089994;28;20131;-80
2021/12/28 09:27:58;;;;;;;20.23;7.50;;;8.50;97.10;;;;;;5111671;27;20033;-80
2021/12/28 09:30:25;;;;;;;23.75;8.63;;;8.50;97.00;;;;;;5088146;28;20037;-80
2021/12/28 09:32:53;;;;;;;22.15;8.55;;;8.50;97.10;;;;;;5086808;28;20027;-79
2021/12/28 09:35:23;;;;;;;24.17;8.20;;;8.60;97.10;;;;;;5108168;28;20076;-79
2021/12/28 09:37:49;;;;;;;19.42;7.90;;;8.60;97.10;;;;;;5097816;28;20026;-79
2021/12/28 09:40:19;;;;;;;23.77;8.20;;;8.70;97.10;;;;;;5084704;28;20052;-80
2021/12/28 09:42:46;;;;;;;23.13;8.27;;;8.70;97.10;;;;;;5097531;28;20041;-80
2021/12/28 09:45:16;;;;;;;21.58;8.07;;;8.70;97.10;;;;;;5098070;27;20076;-80
2021/12/28 09:47:56;;;;;;;20.40;7.68;;;8.70;97.10;;;;;;5088806;28;20041;-80
2021/12/28 09:50:26;;;;;;;17.08;7.45;;;8.70;97.10;;;;;;5094261;28;20041;-80
2021/12/28 09:52:54;;;;;;;15.77;7.03;;;8.80;97.10;;;;;;5105724;28;20056;-80
2021/12/28 09:55:33;;;;;;;22.50;7.60;;;8.70;97.10;;;;;;5110874;28;20039;-80
2021/12/28 09:58:08;;;;;;;16.38;6.95;;;8.80;97.10;;;;;;5103972;28;20064;-79
2021/12/28 10:00:55;;;;;;;24.92;7.95;;;8.70;97.10;;;;;;5061037;28;20038;-79
2021/12/28 10:03:22;;;;;;;19.73;8.27;;;8.80;97.10;;;;;;5060827;28;20030;-79
2021/12/28 10:06:01;;;;;;;18.35;7.75;;;8.80;97.20;;;;;;5061900;28;20034;-79
2021/12/28 10:08:28;;;;;;;18.48;7.88;;;8.80;97.20;;;;;;5064149;28;20041;-80
2021/12/28 10:10:57;;;;;;;14.27;7.78;;;8.90;97.20;;;;;;5070000;28;20116;-79
2021/12/28 10:13:30;;;;;;;14.68;7.90;;;8.90;97.20;;;;;;5057905;28;20026;-80
2021/12/28 10:15:57;;;;;;;18.25;8.60;;;8.90;97.10;;;;;;5060454;28;20034;-79
2021/12/28 10:18:24;;;;;;;17.08;7.53;;;8.90;97.10;;;;;;5056030;28;20058;-79
2021/12/28 10:21:02;;;;;;;20.30;8.10;;;9.00;97.10;;;;;;5065848;28;20042;-80
2021/12/28 10:23:32;;;;;;;15.68;7.68;;;9.00;97.00;;;;;;5062820;28;20030;-79
2021/12/28 10:26:05;;;;;;;15.25;7.85;;;9.10;97.00;;;;;;5056583;28;20053;-80
2021/12/28 10:28:34;;;;;;;;;;;9.10;97.00;;;;;;5099350;28;20049;-81
2021/12/28 10:31:17;;;;;;;15.38;7.43;;;9.10;97.00;;;;;;5068235;28;19944;-80
2021/12/28 10:33:44;;;;;;;13.48;8.05;;;9.20;97.00;;;;;;5064861;28;20034;-81
2021/12/28 10:36:13;;;;;;;17.27;8.43;;;9.20;97.00;;;;;;5066490;28;20041;-82
2021/12/28 10:38:47;;;;;;;19.55;8.00;;;9.20;96.90;;;;;;5101193;28;20045;-81
2021/12/28 10:41:22;;;;;;;18.85;8.05;;;9.20;96.80;;;;;;5062724;28;20041;-82
2021/12/28 10:43:51;;;;;;;18.42;7.80;;;9.20;96.80;;;;;;5070499;28;20030;-82
2021/12/28 10:46:25;;;;;;;15.25;7.75;;;9.20;96.80;;;;;;5066588;28;20057;-83
2021/12/28 10:48:56;;;;;;;13.18;7.65;;;9.20;96.80;;;;;;5065151;28;20033;-82
2021/12/28 10:51:29;;;;;;;17.38;7.85;;;9.30;96.80;;;;;;5061526;28;20050;-82
2021/12/28 10:56:27;;;;;;;15.25;7.07;;;9.30;96.70;;;;;;5063614;28;20268;-81
2021/12/28 10:58:54;;;;;;;14.43;6.85;;;9.30;96.80;;;;;;5066460;28;20049;-81
2021/12/28 11:01:32;;;;;;;14.15;7.20;;;9.30;96.70;;;;;;5063876;28;20573;-81
2021/12/28 11:04:08;;;;;;;13.82;6.95;;;9.40;96.60;;;;;;5072493;28;20081;-82
2021/12/28 11:06:43;;;;;;;11.60;6.50;;;9.40;96.50;;;;;;5064302;28;20050;-81
2021/12/28 11:09:18;;;;;;;10.70;5.72;;;9.30;96.50;;;;;;5063536;28;20037;-81
2021/12/28 11:11:47;;;;;;;12.35;7.00;;;9.30;96.30;;;;;;5068013;28;20072;-81
2021/12/28 11:14:22;;;;;;;8.20;5.40;;;9.30;96.30;;;;;;5059894;28;20072;-81
2021/12/28 11:16:54;;;;;;;11.15;6.03;;;9.30;96.30;;;;;;5056492;28;20034;-81
2021/12/28 11:19:31;;;;;;;11.15;5.82;;;9.30;96.40;;;;;;5072831;28;20029;-81
2021/12/28 11:22:11;;;;;;;8.48;5.07;;;9.30;96.30;;;;;;5065592;28;20052;-81
2021/12/28 11:24:45;;;;;;;9.05;4.90;;;9.30;96.30;;;;;;5058738;28;20045;-81
2021/12/28 11:27:21;;;;;;;8.75;4.80;;;9.30;96.30;;;;;;5068374;28;20037;-81
2021/12/28 11:29:59;;;;;;;12.48;5.65;;;9.40;96.30;;;;;;5061921;28;20042;-81
2021/12/28 11:32:27;;;;;;;9.52;5.13;;;9.30;96.30;;;;;;5063575;28;20076;-81
2021/12/28 11:34:57;;;;;;;9.40;5.05;;;9.40;96.40;;;;;;5072566;28;20030;-81
2021/12/28 11:37:27;;;;;;;11.20;5.65;;;9.30;96.40;;;;;;5060242;28;20034;-82
2021/12/28 11:40:03;;;;;;;12.38;5.47;;;9.40;96.50;;;;;;5060971;28;20198;-82
2021/12/28 11:42:36;;;;;;;8.23;4.78;;;9.40;96.60;;;;;;5067215;28;20050;-82
2021/12/28 11:45:04;;;;;;;10.98;5.05;;;9.40;96.50;;;;;;5063894;28;20092;-82
2021/12/28 11:47:33;;;;;;;12.45;5.25;;;9.40;96.60;;;;;;5070209;28;20048;-82
2021/12/28 11:50:00;;;;;;;8.10;4.53;;;9.40;96.60;;;;;;5055746;28;20100;-82
2021/12/28 11:52:30;;;;;;;9.98;5.28;;;9.40;96.60;;;;;;5055061;28;20042;-82
2021/12/28 11:54:57;;;;;;;12.25;5.80;;;9.40;96.70;;;;;;5050388;28;20184;-81
2021/12/28 11:57:27;;;;;;;12.88;5.90;;;9.40;96.70;;;;;;5047453;28;20053;-82
2021/12/28 11:59:58;;;;;;;10.95;5.60;;;9.40;96.70;;;;;;5074040;28;20053;-83
2021/12/28 12:02:43;;;;;;;12.80;6.00;;;9.40;96.70;;;;;;5081347;28;20227;-83
2021/12/28 12:05:16;;;;;;;14.05;6.05;;;9.30;96.80;;;;;;5088660;28;20044;-84
2021/12/28 12:08:01;;;;;;;15.37;6.20;;;9.40;96.80;;;;;;5073467;28;20595;-84
2021/12/28 12:10:30;;;;;;;13.07;6.18;;;9.30;96.70;;;;;;5083179;28;20056;-83
2021/12/28 12:13:00;;;;;;;14.77;6.07;;;9.20;96.90;;;;;;5085067;28;20045;-82
2021/12/28 12:15:40;;;;;;;11.32;5.00;;;9.30;97.00;;;;;;5076125;28;20101;-83
2021/12/28 12:18:10;;;;;;;14.25;5.28;;;9.30;97.00;;;;;;5092040;28;20056;-83
2021/12/28 12:20:38;;;;;;;7.47;4.70;;;9.30;97.00;;;;;;5089200;28;20755;-83
2021/12/28 12:23:14;;;;;;;10.23;4.72;;;9.20;97.00;;;;;;5085580;28;20033;-82
2021/12/28 12:25:41;;;;;;;11.00;4.25;;;9.20;97.10;;;;;;5078478;28;20052;-82
2021/12/28 12:28:10;;;;;;;6.00;3.78;;;9.20;97.00;;;;;;5087850;28;20044;-79
2021/12/28 12:30:53;;;;;;;9.23;2.33;;;9.20;97.10;;;;;;5068036;28;20030;-81
2021/12/28 12:33:20;;;;;;;5.07;1.77;;;9.20;96.60;;;;;;5080106;28;20063;-80
2021/12/28 12:35:55;;;;;;;9.07;2.20;;;9.20;96.00;;;;;;5082321;28;20056;-81
2021/12/28 12:38:25;;;;;;;14.82;2.10;;;9.10;95.70;;;;;;5059792;28;20048;-82
2021/12/28 12:41:13;;;;;;;14.80;2.33;;;9.00;95.30;;;;;;5068201;28;20048;-81
2021/12/28 12:43:56;;;;;;;17.50;2.15;;;8.90;94.80;;;;;;5082154;28;20123;-82
2021/12/28 12:46:28;;;;;;;12.35;1.70;;;8.80;94.20;;;;;;5079529;28;20128;-80
2021/12/28 12:48:55;;;;;;;21.73;2.35;;;8.70;94.40;;;;;;5066736;28;20518;-81
2021/12/28 12:51:21;;;;;;;11.32;2.20;;;8.60;94.30;;;;;;5078957;28;20559;-81
2021/12/28 12:53:53;;;;;;;22.75;2.45;;;8.50;94.80;;;;;;5067669;28;21024;-81
2021/12/28 12:56:23;;;;;;;21.40;2.53;;;8.50;95.00;;;;;;5092947;28;20025;-81
2021/12/28 12:58:53;;;;;;;29.17;2.83;;;8.50;95.20;;;;;;5112396;28;20047;-80
2021/12/28 13:01:30;;;;;;;19.80;2.90;;;8.50;95.60;;;;;;5078975;28;20057;-81
2021/12/28 13:04:00;;;;;;;23.45;2.75;;;8.50;95.70;;;;;;5078187;28;20055;-81